Time,TemperatureF,DewpointF,PressureIn,WindDirection,WindDirectionDegrees,WindSpeedMPH,WindSpeedGustMPH,Humidity,HourlyPrecipIn,Conditions,Clouds,dailyrainin,SoftwareType,DateUTC
2013-11-02 11:40:00,69.1,35.5,30.32,NNW,338,6.0,14.0,29,0.00,,-RA,0.00,VWS V14.01,2013-11-02 16:40:00,
2013-11-02 12:07:00,69.1,35.5,30.32,NNW,338,6.0,14.0,29,0.00,,-RA,0.00,VWS V14.01,2013-11-02 17:07:00,
2013-11-02 12:12:00,70.1,34.6,30.31,NNW,329,6.0,11.0,27,0.00,,CLR,0.00,VWS V14.01,2013-11-02 17:12:00,
2013-11-02 12:17:00,70.6,32.1,30.31,NNE,26,11.0,13.0,24,0.00,,CLR,0.00,VWS V14.01,2013-11-02 17:17:00,
2013-11-02 12:22:00,70.4,32.9,30.31,NNW,347,13.0,18.0,25,0.00,,CLR,0.00,VWS V14.01,2013-11-02 17:22:00,
2013-11-02 12:27:00,70.3,33.8,30.31,NNW,338,10.0,12.0,26,0.00,,CLR,0.00,VWS V14.01,2013-11-02 17:27:00,
2013-11-02 12:32:00,70.8,33.3,30.31,NNW,348,5.0,15.0,25,0.00,,CLR,0.00,VWS V14.01,2013-11-02 17:32:00,
2013-11-02 12:37:00,70.8,33.3,30.30,NNW,348,5.0,5.0,25,0.00,,CLR,0.00,VWS V14.01,2013-11-02 17:37:00,
2013-11-02 12:42:00,70.9,33.4,30.30,NW,310,11.0,13.0,25,0.00,,CLR,0.00,VWS V14.01,2013-11-02 17:42:00,
2013-11-02 12:47:00,71.3,33.7,30.30,NNW,345,15.0,15.0,25,0.00,,CLR,0.00,VWS V14.01,2013-11-02 17:47:00,
2013-11-02 12:52:00,71.3,32.7,30.30,WNW,294,10.0,16.0,24,0.00,,CLR,0.00,VWS V14.01,2013-11-02 17:52:00,
2013-11-02 12:57:00,71.6,29.6,30.30,NNW,347,8.0,11.0,21,0.00,,CLR,0.00,VWS V14.01,2013-11-02 17:57:00,
2013-11-02 13:02:00,72.0,32.2,30.30,NW,312,6.0,15.0,23,0.00,,CLR,0.00,VWS V14.01,2013-11-02 18:02:00,
2013-11-02 13:07:00,72.5,33.7,30.29,North,5,4.0,12.0,24,0.00,,CLR,0.00,VWS V14.01,2013-11-02 18:07:00,
2013-11-02 13:12:00,72.8,32.9,30.29,NNW,329,12.0,13.0,23,0.00,,CLR,0.00,VWS V14.01,2013-11-02 18:12:00,
2013-11-02 13:17:00,72.5,32.6,30.29,WNW,300,14.0,14.0,23,0.00,,CLR,0.00,VWS V14.01,2013-11-02 18:17:00,
2013-11-02 13:22:00,72.0,31.1,30.28,NNW,329,7.0,20.0,22,0.00,,CLR,0.00,VWS V14.01,2013-11-02 18:22:00,
2013-11-02 13:27:00,72.0,30.0,30.28,NW,305,10.0,10.0,21,0.00,,CLR,0.00,VWS V14.01,2013-11-02 18:27:00,
2013-11-02 13:32:00,72.3,32.5,30.28,NW,316,7.0,13.0,23,0.00,,CLR,0.00,VWS V14.01,2013-11-02 18:32:00,
2013-11-02 13:37:00,72.5,31.5,30.27,North,355,5.0,7.0,22,0.00,,CLR,0.00,VWS V14.01,2013-11-02 18:37:00,
2013-11-02 13:42:00,72.3,31.4,30.27,North,349,13.0,17.0,22,0.00,,CLR,0.00,VWS V14.01,2013-11-02 18:42:00,
2013-11-02 13:47:00,72.3,31.4,30.27,NW,324,14.0,16.0,22,0.00,,CLR,0.00,VWS V14.01,2013-11-02 18:47:00,
2013-11-02 13:52:00,72.3,30.2,30.27,North,5,14.0,18.0,21,0.00,,CLR,0.00,VWS V14.01,2013-11-02 18:52:00,
2013-11-02 13:57:00,72.3,30.2,30.27,North,349,5.0,7.0,21,0.00,,CLR,0.00,VWS V14.01,2013-11-02 18:57:00,
2013-11-02 14:02:00,72.5,30.4,30.27,NNW,334,9.0,13.0,21,0.00,,CLR,0.00,VWS V14.01,2013-11-02 19:02:00,
2013-11-02 14:07:00,73.0,32.0,30.26,North,355,11.0,14.0,22,0.00,,CLR,0.00,VWS V14.01,2013-11-02 19:07:00,
2013-11-02 14:12:00,72.7,31.7,30.26,WNW,289,11.0,18.0,22,0.00,,CLR,0.00,VWS V14.01,2013-11-02 19:12:00,
2013-11-02 14:17:00,72.5,32.6,30.26,NNE,27,11.0,11.0,23,0.00,,CLR,0.00,VWS V14.01,2013-11-02 19:17:00,
2013-11-02 14:22:00,72.7,31.7,30.25,North,355,4.0,18.0,22,0.00,,CLR,0.00,VWS V14.01,2013-11-02 19:22:00,
2013-11-02 14:27:00,72.7,31.7,30.25,NNW,333,12.0,13.0,22,0.00,,CLR,0.00,VWS V14.01,2013-11-02 19:27:00,
2013-11-02 14:32:00,73.0,33.0,30.25,NW,321,10.0,14.0,23,0.00,,CLR,0.00,VWS V14.01,2013-11-02 19:32:00,
2013-11-02 14:37:00,73.2,33.2,30.25,NNW,333,4.0,4.0,23,0.00,,CLR,0.00,VWS V14.01,2013-11-02 19:37:00,
2013-11-02 14:42:00,73.5,34.5,30.25,NNW,348,9.0,16.0,24,0.00,,CLR,0.00,VWS V14.01,2013-11-02 19:42:00,
2013-11-02 14:47:00,73.2,33.2,30.25,NNW,330,9.0,14.0,23,0.00,,CLR,0.00,VWS V14.01,2013-11-02 19:47:00,
2013-11-02 14:52:00,73.0,34.1,30.24,NNW,346,6.0,16.0,24,0.00,,CLR,0.00,VWS V14.01,2013-11-02 19:52:00,
2013-11-02 14:57:00,73.3,34.4,30.24,NNW,331,3.0,5.0,24,0.00,,CLR,0.00,VWS V14.01,2013-11-02 19:57:00,
2013-11-02 15:02:00,73.2,33.2,30.24,NW,323,4.0,17.0,23,0.00,,CLR,0.00,VWS V14.01,2013-11-02 20:02:00,
2013-11-02 15:07:00,73.2,33.2,30.24,WNW,303,8.0,9.0,23,0.00,,CLR,0.00,VWS V14.01,2013-11-02 20:07:00,
2013-11-02 15:12:00,73.2,33.2,30.24,NNW,333,5.0,14.0,23,0.00,,CLR,0.00,VWS V14.01,2013-11-02 20:12:00,
2013-11-02 15:17:00,73.3,32.2,30.24,North,355,10.0,14.0,22,0.00,,CLR,0.00,VWS V14.01,2013-11-02 20:17:00,
2013-11-02 15:22:00,73.2,32.1,30.23,North,9,11.0,16.0,22,0.00,,CLR,0.00,VWS V14.01,2013-11-02 20:22:00,
2013-11-02 15:27:00,73.3,32.2,30.23,NW,315,11.0,11.0,22,0.00,,CLR,0.00,VWS V14.01,2013-11-02 20:27:00,
2013-11-02 15:32:00,73.9,31.5,30.23,NW,311,8.0,16.0,21,0.00,,CLR,0.00,VWS V14.01,2013-11-02 20:32:00,
2013-11-02 15:37:00,74.0,32.8,30.22,North,355,10.0,11.0,22,0.00,,CLR,0.00,VWS V14.01,2013-11-02 20:37:00,
2013-11-02 15:42:00,73.9,31.5,30.22,NNE,22,4.0,13.0,21,0.00,,CLR,0.00,VWS V14.01,2013-11-02 20:42:00,
2013-11-02 15:47:00,73.5,31.2,30.22,NW,309,9.0,9.0,21,0.00,,CLR,0.00,VWS V14.01,2013-11-02 20:47:00,
2013-11-02 15:52:00,73.7,31.4,30.22,NNW,336,5.0,13.0,21,0.00,,CLR,0.00,VWS V14.01,2013-11-02 20:52:00,
2013-11-02 15:57:00,73.5,31.2,30.22,NW,321,11.0,11.0,21,0.00,,CLR,0.00,VWS V14.01,2013-11-02 20:57:00,
2013-11-02 16:02:00,73.5,31.2,30.22,NNW,331,9.0,11.0,21,0.00,,CLR,0.00,VWS V14.01,2013-11-02 21:02:00,
2013-11-02 16:07:00,73.3,31.0,30.22,NNW,346,7.0,8.0,21,0.00,,CLR,0.00,VWS V14.01,2013-11-02 21:07:00,
2013-11-02 16:12:00,73.5,31.2,30.22,NE,43,2.0,13.0,21,0.00,,CLR,0.00,VWS V14.01,2013-11-02 21:12:00,
2013-11-02 16:17:00,73.5,30.0,30.22,NNW,333,3.0,13.0,20,0.00,,CLR,0.00,VWS V14.01,2013-11-02 21:17:00,
2013-11-02 16:21:00,73.9,32.7,30.22,North,10,4.0,10.0,22,0.00,,CLR,0.00,VWS V14.01,2013-11-02 21:21:00,
2013-11-02 16:26:00,73.9,31.5,30.22,NW,313,9.0,10.0,21,0.00,,CLR,0.00,VWS V14.01,2013-11-02 21:26:00,
2013-11-02 16:31:00,73.7,31.4,30.22,NNW,343,12.0,15.0,21,0.00,,CLR,0.00,VWS V14.01,2013-11-02 21:31:00,
2013-11-02 16:36:00,73.5,31.2,30.21,NNW,329,5.0,15.0,21,0.00,,CLR,0.00,VWS V14.01,2013-11-02 21:36:00,
2013-11-02 16:41:00,73.3,31.0,30.21,NNW,340,10.0,13.0,21,0.00,,CLR,0.00,VWS V14.01,2013-11-02 21:41:00,
2013-11-02 16:46:00,73.3,31.0,30.21,NNW,331,3.0,13.0,21,0.00,,CLR,0.00,VWS V14.01,2013-11-02 21:46:00,
2013-11-02 16:51:00,73.5,31.2,30.21,North,10,5.0,13.0,21,0.00,,CLR,0.00,VWS V14.01,2013-11-02 21:51:00,
2013-11-02 16:56:00,73.7,32.5,30.21,NW,325,9.0,13.0,22,0.00,,CLR,0.00,VWS V14.01,2013-11-02 21:56:00,
2013-11-02 17:01:00,73.5,32.4,30.21,North,355,4.0,10.0,22,0.00,,CLR,0.00,VWS V14.01,2013-11-02 22:01:00,
2013-11-02 17:06:00,73.5,32.4,30.21,North,355,6.0,10.0,22,0.00,,CLR,0.00,VWS V14.01,2013-11-02 22:06:00,
2013-11-02 17:11:00,73.3,32.2,30.21,North,355,5.0,11.0,22,0.00,,CLR,0.00,VWS V14.01,2013-11-02 22:11:00,
2013-11-02 17:16:00,73.3,33.3,30.21,NW,315,4.0,11.0,23,0.00,,CLR,0.00,VWS V14.01,2013-11-02 22:16:00,
2013-11-02 17:21:00,73.2,32.1,30.21,North,350,4.0,11.0,22,0.00,,CLR,0.00,VWS V14.01,2013-11-02 22:21:00,
2013-11-02 17:26:00,73.0,33.0,30.21,NNE,24,8.0,11.0,23,0.00,,CLR,0.00,VWS V14.01,2013-11-02 22:26:00,
2013-11-02 17:31:00,72.8,32.9,30.21,North,5,2.0,10.0,23,0.00,,CLR,0.00,VWS V14.01,2013-11-02 22:31:00,
2013-11-02 17:36:00,72.7,32.8,30.21,NNW,348,3.0,10.0,23,0.00,,CLR,0.00,VWS V14.01,2013-11-02 22:36:00,
2013-11-02 17:41:00,72.7,33.9,30.21,NNE,21,5.0,10.0,24,0.00,,CLR,0.00,VWS V14.01,2013-11-02 22:41:00,
2013-11-02 17:46:00,72.5,32.6,30.21,North,355,5.0,12.0,23,0.00,,CLR,0.00,VWS V14.01,2013-11-02 22:46:00,
2013-11-02 17:51:00,72.3,33.5,30.21,North,10,6.0,11.0,24,0.00,,CLR,0.00,VWS V14.01,2013-11-02 22:51:00,
2013-11-02 17:56:00,72.1,33.3,30.21,NNW,336,2.0,11.0,24,0.00,,CLR,0.00,VWS V14.01,2013-11-02 22:56:00,
2013-11-02 18:01:00,71.8,33.1,30.21,NNE,27,6.0,7.0,24,0.00,,CLR,0.00,VWS V14.01,2013-11-02 23:01:00,
2013-11-02 18:06:00,71.6,34.0,30.21,NNW,338,1.0,7.0,25,0.00,,CLR,0.00,VWS V14.01,2013-11-02 23:06:00,
2013-11-02 18:11:00,71.3,33.7,30.21,NNW,345,0.0,4.0,25,0.00,,CLR,0.00,VWS V14.01,2013-11-02 23:11:00,
2013-11-02 18:16:00,71.1,35.5,30.21,NNW,345,0.0,4.0,27,0.00,,CLR,0.00,VWS V14.01,2013-11-02 23:16:00,
2013-11-02 18:21:00,70.8,36.1,30.22,NNW,345,2.0,3.0,28,0.00,,CLR,0.00,VWS V14.01,2013-11-02 23:21:00,
2013-11-02 18:26:00,70.3,35.7,30.22,NNE,14,0.0,3.0,28,0.00,,CLR,0.00,VWS V14.01,2013-11-02 23:26:00,
2013-11-02 18:31:00,69.8,34.3,30.22,NNE,14,0.0,0.0,27,0.00,,CLR,0.00,VWS V14.01,2013-11-02 23:31:00,
2013-11-02 18:36:00,69.4,34.9,30.23,NNE,14,0.0,0.0,28,0.00,,CLR,0.00,VWS V14.01,2013-11-02 23:36:00,
2013-11-02 18:41:00,69.1,36.4,30.23,NNE,14,0.0,0.0,30,0.00,,CLR,0.00,VWS V14.01,2013-11-02 23:41:00,
2013-11-02 18:46:00,68.8,37.0,30.23,NNE,14,0.0,0.0,31,0.00,,CLR,0.00,VWS V14.01,2013-11-02 23:46:00,
2013-11-02 18:51:00,68.3,37.3,30.23,NNE,14,0.0,0.0,32,0.00,,CLR,0.00,VWS V14.01,2013-11-02 23:51:00,
2013-11-02 18:56:00,67.8,37.7,30.23,NNE,14,0.0,0.0,33,0.00,,CLR,0.00,VWS V14.01,2013-11-02 23:56:00,
2013-11-02 19:01:00,67.3,38.0,30.23,NNE,14,0.0,0.0,34,0.00,,CLR,0.00,VWS V14.01,2013-11-03 00:01:00,
2013-11-02 19:06:00,66.8,38.3,30.23,NNE,14,0.0,0.0,35,0.00,,CLR,0.00,VWS V14.01,2013-11-03 00:06:00,
2013-11-02 19:11:00,66.4,38.7,30.23,NNE,14,0.0,0.0,36,0.00,,CLR,0.00,VWS V14.01,2013-11-03 00:11:00,
2013-11-02 19:16:00,66.0,39.7,30.23,NNE,14,0.0,0.0,38,0.00,,CLR,0.00,VWS V14.01,2013-11-03 00:16:00,
2013-11-02 19:21:00,65.6,38.7,30.24,NNE,14,0.0,0.0,37,0.00,,CLR,0.00,VWS V14.01,2013-11-03 00:21:00,
2013-11-02 19:26:00,65.3,39.1,30.24,NNE,14,0.0,0.0,38,0.00,,CLR,0.00,VWS V14.01,2013-11-03 00:26:00,
2013-11-02 19:31:00,65.0,39.5,30.24,NNE,14,0.0,0.0,39,0.00,,CLR,0.00,VWS V14.01,2013-11-03 00:31:00,
2013-11-02 19:36:00,64.5,39.7,30.24,NNE,14,0.0,0.0,40,0.00,,CLR,0.00,VWS V14.01,2013-11-03 00:36:00,
2013-11-02 19:41:00,64.3,40.1,30.24,NNE,14,0.0,0.0,41,0.00,,CLR,0.00,VWS V14.01,2013-11-03 00:41:00,
2013-11-02 19:46:00,64.0,40.5,30.24,NNE,14,0.0,0.0,42,0.00,,CLR,0.00,VWS V14.01,2013-11-03 00:46:00,
2013-11-02 19:51:00,63.7,41.4,30.24,NNE,14,0.0,0.0,44,0.00,,CLR,0.00,VWS V14.01,2013-11-03 00:51:00,
2013-11-02 19:56:00,63.4,41.7,30.24,NNE,14,0.0,0.0,45,0.00,,CLR,0.00,VWS V14.01,2013-11-03 00:56:00,
2013-11-02 20:01:00,62.9,41.3,30.24,NNE,14,0.0,0.0,45,0.00,,CLR,0.00,VWS V14.01,2013-11-03 01:01:00,
2013-11-02 20:06:00,62.7,40.5,30.25,NNE,14,0.0,0.0,44,0.00,,CLR,0.00,VWS V14.01,2013-11-03 01:06:00,
2013-11-02 20:11:00,62.3,40.7,30.25,NNE,14,0.0,0.0,45,0.00,,CLR,0.00,VWS V14.01,2013-11-03 01:11:00,
2013-11-02 20:16:00,62.1,40.5,30.25,NNE,14,0.0,0.0,45,0.00,,CLR,0.00,VWS V14.01,2013-11-03 01:16:00,
2013-11-02 20:21:00,62.0,41.0,30.25,NNE,14,0.0,0.0,46,0.00,,CLR,0.00,VWS V14.01,2013-11-03 01:21:00,
2013-11-02 20:26:00,61.8,40.8,30.25,NNE,14,0.0,0.0,46,0.00,,CLR,0.00,VWS V14.01,2013-11-03 01:26:00,
2013-11-02 20:31:00,61.8,40.3,30.25,NNE,14,0.0,0.0,45,0.00,,CLR,0.00,VWS V14.01,2013-11-03 01:31:00,
2013-11-02 20:36:00,61.6,40.1,30.25,NNE,14,0.0,0.0,45,0.00,,CLR,0.00,VWS V14.01,2013-11-03 01:36:00,
2013-11-02 20:41:00,61.6,40.6,30.25,NNE,14,0.0,0.0,46,0.00,,CLR,0.00,VWS V14.01,2013-11-03 01:41:00,
2013-11-02 20:46:00,61.5,40.5,30.25,NNE,14,0.0,0.0,46,0.00,,CLR,0.00,VWS V14.01,2013-11-03 01:46:00,
2013-11-02 20:51:00,61.3,39.8,30.26,NNE,14,0.0,0.0,45,0.00,,CLR,0.00,VWS V14.01,2013-11-03 01:51:00,
2013-11-02 20:56:00,61.3,39.8,30.26,NNE,14,0.0,0.0,45,0.00,,CLR,0.00,VWS V14.01,2013-11-03 01:56:00,
2013-11-02 21:01:00,61.3,40.4,30.26,NNE,14,0.0,0.0,46,0.00,,CLR,0.00,VWS V14.01,2013-11-03 02:01:00,
2013-11-02 21:06:00,61.2,39.7,30.26,NNE,14,0.0,0.0,45,0.00,,CLR,0.00,VWS V14.01,2013-11-03 02:06:00,
2013-11-02 21:11:00,61.2,40.3,30.26,NNE,14,0.0,0.0,46,0.00,,CLR,0.00,VWS V14.01,2013-11-03 02:11:00,
2013-11-02 21:16:00,61.0,40.1,30.26,NNE,14,0.0,0.0,46,0.00,,CLR,0.00,VWS V14.01,2013-11-03 02:16:00,
2013-11-02 21:21:00,60.9,40.0,30.26,NNE,14,0.0,0.0,46,0.00,,CLR,0.00,VWS V14.01,2013-11-03 02:21:00,
2013-11-02 21:26:00,60.7,39.8,30.26,NNE,13,2.0,5.0,46,0.00,,CLR,0.00,VWS V14.01,2013-11-03 02:26:00,
2013-11-02 21:31:00,60.9,39.4,30.26,NNE,13,0.0,1.0,45,0.00,,CLR,0.00,VWS V14.01,2013-11-03 02:31:00,
2013-11-02 21:36:00,60.9,40.0,30.26,NNE,13,0.0,1.0,46,0.00,,CLR,0.00,VWS V14.01,2013-11-03 02:36:00,
2013-11-02 21:41:00,60.9,39.4,30.26,NNE,14,0.0,1.0,45,0.00,,CLR,0.00,VWS V14.01,2013-11-03 02:41:00,
2013-11-02 21:46:00,60.7,39.8,30.26,NNE,14,0.0,1.0,46,0.00,,CLR,0.00,VWS V14.01,2013-11-03 02:46:00,
2013-11-02 21:51:00,60.5,39.6,30.27,NNE,14,0.0,0.0,46,0.00,,CLR,0.00,VWS V14.01,2013-11-03 02:51:00,
2013-11-02 21:56:00,60.4,39.5,30.27,NNE,14,0.0,0.0,46,0.00,,CLR,0.00,VWS V14.01,2013-11-03 02:56:00,
2013-11-02 22:01:00,60.2,39.9,30.27,NNE,14,0.0,0.0,47,0.00,,CLR,0.00,VWS V14.01,2013-11-03 03:01:00,
2013-11-02 22:06:00,60.1,39.8,30.27,NNE,14,0.0,0.0,47,0.00,,CLR,0.00,VWS V14.01,2013-11-03 03:06:00,
2013-11-02 22:11:00,59.8,40.1,30.27,NNE,14,0.0,0.0,48,0.00,,CLR,0.00,VWS V14.01,2013-11-03 03:11:00,
2013-11-02 22:16:00,59.5,40.9,30.27,NNE,14,0.0,0.0,50,0.00,,CLR,0.00,VWS V14.01,2013-11-03 03:16:00,
2013-11-02 22:21:00,59.2,40.6,30.27,NNE,14,0.0,0.0,50,0.00,,CLR,0.00,VWS V14.01,2013-11-03 03:21:00,
2013-11-02 22:26:00,58.9,41.3,30.27,NNE,14,0.0,0.0,52,0.00,,CLR,0.00,VWS V14.01,2013-11-03 03:26:00,
2013-11-02 22:31:00,58.6,42.0,30.27,NNE,14,0.0,0.0,54,0.00,,CLR,0.00,VWS V14.01,2013-11-03 03:31:00,
2013-11-02 22:36:00,58.3,42.7,30.27,NNE,14,0.0,0.0,56,0.00,,CLR,0.00,VWS V14.01,2013-11-03 03:36:00,
2013-11-02 22:41:00,57.8,42.7,30.27,NNE,14,0.0,0.0,57,0.00,,CLR,0.00,VWS V14.01,2013-11-03 03:41:00,
2013-11-02 22:46:00,57.5,42.8,30.27,NNE,14,0.0,0.0,58,0.00,,CLR,0.00,VWS V14.01,2013-11-03 03:46:00,
2013-11-02 22:51:00,57.2,43.5,30.27,NNE,14,0.0,0.0,60,0.00,,CLR,0.00,VWS V14.01,2013-11-03 03:51:00,
2013-11-02 22:56:00,56.7,43.4,30.27,NNE,14,0.0,0.0,61,0.00,,CLR,0.00,VWS V14.01,2013-11-03 03:56:00,
2013-11-02 23:01:00,56.5,43.7,30.27,NNE,14,0.0,0.0,62,0.00,,CLR,0.00,VWS V14.01,2013-11-03 04:01:00,
2013-11-02 23:06:00,56.0,43.6,30.27,NNE,14,0.0,0.0,63,0.00,,CLR,0.00,VWS V14.01,2013-11-03 04:06:00,
2013-11-02 23:11:00,55.9,43.9,30.27,NNE,14,0.0,0.0,64,0.00,,CLR,0.00,VWS V14.01,2013-11-03 04:11:00,
2013-11-02 23:16:00,55.6,44.0,30.27,NNE,14,0.0,0.0,65,0.00,,CLR,0.00,VWS V14.01,2013-11-03 04:16:00,
2013-11-02 23:21:00,55.4,44.2,30.27,NNE,14,0.0,0.0,66,0.00,,CLR,0.00,VWS V14.01,2013-11-03 04:21:00,
2013-11-02 23:26:00,55.3,44.2,30.27,NNE,14,0.0,0.0,66,0.00,,CLR,0.00,VWS V14.01,2013-11-03 04:26:00,
2013-11-02 23:31:00,55.0,44.3,30.27,NNE,14,0.0,0.0,67,0.00,,CLR,0.00,VWS V14.01,2013-11-03 04:31:00,
2013-11-02 23:36:00,54.7,44.0,30.27,NNE,14,0.0,0.0,67,0.00,,CLR,0.00,VWS V14.01,2013-11-03 04:36:00,
2013-11-02 23:41:00,54.5,44.2,30.27,NNE,14,0.0,0.0,68,0.00,,CLR,0.00,VWS V14.01,2013-11-03 04:41:00,
2013-11-02 23:46:00,54.2,44.3,30.27,NNE,14,0.0,0.0,69,0.00,,CLR,0.00,VWS V14.01,2013-11-03 04:46:00,
2013-11-02 23:51:00,53.9,44.0,30.26,NNE,14,0.0,0.0,69,0.00,,CLR,0.00,VWS V14.01,2013-11-03 04:51:00,
2013-11-02 23:56:00,53.8,43.9,30.26,NNE,14,0.0,0.0,69,0.00,,CLR,0.00,VWS V14.01,2013-11-03 04:56:00,